Aroeiras, Brazil
Current Conditions -  °F | °C
As of 11:15 PM on Friday 19 Dec 2014 (Local Time) from SBKG Reporting Station
Broken Clouds Broken Clouds  
Wind Chill: 72°   Ceiling: 1000
Heat Index: 72°   Visibility: 6mi
Dew Point: 68°   Wind: 10mph
Humidity: 88%   Direction: 70°ENE
Pressure: 30"   Gusts: NA
Location:  7.55°S, 35.71°W
Report Text: SBKG 200215Z 07009KT 9999 BKN010 22/20 Q1016
Loading
Personal Weather Stations






























Interactive Weather Map New forecast layout! Learn more

10-Day Weather Forecast

Advertisements
Track Severe Weather on mobile